PWSweather.com
Personal Weather Stations
Station Observations
KMICHEBO10
Cordwood Point, Lake Huron, Cheboygan, MI 49721

Cordwood Point, Lake HuronCheboygan, MI 49721

Lat: 45.663372, Lon: -84.3327789

Elevation: 584

Station Type: Davis Vantage Pro2 Wireless

https://www.lakehuronweather.org

Latest ConditionsUpdated 2:30:02 PM EDT Monday, Jul 16, 2018
Currently Today's Max Today's Min Today's Average
Temperature 77.5°F25.3°C 77.6°F25.3°C 67.7°F19.8°C 71.5°F21.9°C
Dew Point 69.0°F20.6°C 71.6°F22.0°C 64.9°F18.3°C 68.1°F20.1°C
Winds 1.2 mph NE1.9 kmh NE 1.2 mph -1.9 kmh - - 0.2 mph 0.3 kmh
Wind Gusts 2.3 mph3.7 kmh 4.6 mph7.4 kmh - -
Humidity 75% 95% 75% 89%
Pressure 29.77 in1008.1 mb 29.85 in1010.8 mb 29.77 in1008.1 mb -
Hour Temp Dew Point Humidity Winds Wind Gusts Pressure Precip Precip Rate Daily Precip Total
02:30 PM 77.5°F25.3°C 69.0°F20.6°C 75% 1.2 mph NE1.9 kmh NE 2.3 mph3.7 kmh 29.77 in1008.1 mb - 0.00 in0.0 mm 0.00 in0.0 mm
02:20 PM 77.6°F25.3°C 69.4°F20.8°C 76% 1.2 mph NNE1.9 kmh NNE 2.3 mph3.7 kmh 29.78 in1008.5 mb - 0.00 in0.0 mm 0.00 in0.0 mm
02:10 PM 77.4°F25.2°C 69.2°F20.7°C 76% 1.2 mph NNE1.9 kmh NNE 2.3 mph3.7 kmh 29.78 in1008.5 mb - 0.00 in0.0 mm 0.00 in0.0 mm
02:00 PM 76.6°F24.8°C 69.2°F20.7°C 78% 1.2 mph ENE1.9 kmh ENE 2.3 mph3.7 kmh 29.79 in1008.8 mb - 0.00 in0.0 mm 0.00 in0.0 mm
01:50 PM 75.5°F24.2°C 68.9°F20.5°C 80% Calm Calm -- 29.79 in1008.8 mb - 0.00 in0.0 mm 0.00 in0.0 mm
01:40 PM 75.1°F23.9°C 68.5°F20.3°C 80% Calm Calm -- 29.80 in1009.1 mb - 0.00 in0.0 mm 0.00 in0.0 mm
01:30 PM 75.0°F23.9°C 68.4°F20.2°C 80% Calm Calm -- 29.80 in1009.1 mb - 0.00 in0.0 mm 0.00 in0.0 mm
01:20 PM 75.5°F24.2°C 68.9°F20.5°C 80% Calm Calm -- 29.80 in1009.1 mb - 0.00 in0.0 mm 0.00 in0.0 mm
01:10 PM 75.9°F24.4°C 70.1°F21.2°C 82% Calm Calm 1.2 mph1.9 kmh 29.80 in1009.1 mb - 0.00 in0.0 mm 0.00 in0.0 mm
01:00 PM 76.6°F24.8°C 70.6°F21.4°C 82% Calm Calm 1.2 mph1.9 kmh 29.80 in1009.1 mb - 0.00 in0.0 mm 0.00 in0.0 mm
12:50 PM 76.6°F24.8°C 71.0°F21.7°C 83% 1.2 mph NE1.9 kmh NE 3.5 mph5.6 kmh 29.80 in1009.1 mb - 0.00 in0.0 mm 0.00 in0.0 mm
12:40 PM 76.1°F24.5°C 70.9°F21.6°C 84% 1.2 mph NE1.9 kmh NE 2.3 mph3.7 kmh 29.80 in1009.1 mb - 0.00 in0.0 mm 0.00 in0.0 mm
12:30 PM 76.2°F24.6°C 71.0°F21.7°C 84% Calm Calm 3.5 mph5.6 kmh 29.80 in1009.1 mb - 0.00 in0.0 mm 0.00 in0.0 mm
12:20 PM 76.0°F24.4°C 70.8°F21.6°C 84% Calm Calm 1.2 mph1.9 kmh 29.80 in1009.1 mb - 0.00 in0.0 mm 0.00 in0.0 mm
12:10 PM 75.4°F24.1°C 70.9°F21.6°C 86% 1.2 mph NE1.9 kmh NE 2.3 mph3.7 kmh 29.80 in1009.1 mb - 0.00 in0.0 mm 0.00 in0.0 mm
12:00 PM 75.1°F23.9°C 70.3°F21.3°C 85% Calm Calm -- 29.80 in1009.1 mb - 0.00 in0.0 mm 0.00 in0.0 mm
11:50 AM 75.2°F24.0°C 70.4°F21.3°C 85% Calm Calm 1.2 mph1.9 kmh 29.80 in1009.1 mb - 0.00 in0.0 mm 0.00 in0.0 mm
11:40 AM 75.6°F24.2°C 70.8°F21.6°C 85% Calm Calm 1.2 mph1.9 kmh 29.80 in1009.1 mb - 0.00 in0.0 mm 0.00 in0.0 mm
11:30 AM 76.0°F24.4°C 70.8°F21.6°C 84% 1.2 mph NNE1.9 kmh NNE 1.2 mph1.9 kmh 29.79 in1008.8 mb - 0.00 in0.0 mm 0.00 in0.0 mm
11:20 AM 76.9°F24.9°C 71.0°F21.7°C 82% 1.2 mph NNE1.9 kmh NNE 2.3 mph3.7 kmh 29.79 in1008.8 mb - 0.00 in0.0 mm 0.00 in0.0 mm
11:10 AM 77.5°F25.3°C 71.6°F22.0°C 82% 1.2 mph NNE1.9 kmh NNE 2.3 mph3.7 kmh 29.79 in1008.8 mb - 0.00 in0.0 mm 0.00 in0.0 mm
11:00 AM 77.3°F25.2°C 71.4°F21.9°C 82% Calm Calm 1.2 mph1.9 kmh 29.79 in1008.8 mb - 0.00 in0.0 mm 0.00 in0.0 mm
10:50 AM 76.7°F24.8°C 71.5°F21.9°C 84% 1.2 mph NNE1.9 kmh NNE 2.3 mph3.7 kmh 29.80 in1009.1 mb - 0.00 in0.0 mm 0.00 in0.0 mm
10:40 AM 76.0°F24.4°C 71.5°F21.9°C 86% 1.2 mph N1.9 kmh N 1.2 mph1.9 kmh 29.80 in1009.1 mb - 0.00 in0.0 mm 0.00 in0.0 mm
10:30 AM 75.5°F24.2°C 71.4°F21.9°C 87% 1.2 mph N1.9 kmh N 2.3 mph3.7 kmh 29.79 in1008.8 mb - 0.00 in0.0 mm 0.00 in0.0 mm
10:20 AM 74.8°F23.8°C 71.0°F21.7°C 88% Calm Calm -- 29.79 in1008.8 mb - 0.00 in0.0 mm 0.00 in0.0 mm
10:10 AM 74.8°F23.8°C 71.0°F21.7°C 88% Calm Calm -- 29.79 in1008.8 mb - 0.00 in0.0 mm 0.00 in0.0 mm
10:00 AM 75.2°F24.0°C 71.1°F21.7°C 87% Calm Calm 1.2 mph1.9 kmh 29.79 in1008.8 mb - 0.00 in0.0 mm 0.00 in0.0 mm
09:50 AM 75.0°F23.9°C 70.8°F21.6°C 87% Calm Calm 1.2 mph1.9 kmh 29.79 in1008.8 mb - 0.00 in0.0 mm 0.00 in0.0 mm
09:40 AM 74.9°F23.8°C 70.8°F21.6°C 87% Calm Calm -- 29.79 in1008.8 mb - 0.00 in0.0 mm 0.00 in0.0 mm
09:30 AM 74.8°F23.8°C 70.7°F21.5°C 87% Calm Calm -- 29.79 in1008.8 mb - 0.00 in0.0 mm 0.00 in0.0 mm
09:20 AM 74.6°F23.7°C 70.8°F21.6°C 88% 1.2 mph WNW1.9 kmh WNW 4.6 mph7.4 kmh 29.80 in1009.1 mb - 0.00 in0.0 mm 0.00 in0.0 mm
09:10 AM 74.2°F23.4°C 70.4°F21.3°C 88% 1.2 mph SW1.9 kmh SW 1.2 mph1.9 kmh 29.79 in1008.8 mb - 0.00 in0.0 mm 0.00 in0.0 mm
09:00 AM 73.3°F22.9°C 70.2°F21.2°C 90% Calm Calm 2.3 mph3.7 kmh 29.79 in1008.8 mb - 0.00 in0.0 mm 0.00 in0.0 mm
08:50 AM 72.4°F22.4°C 69.9°F21.1°C 92% Calm Calm -- 29.79 in1008.8 mb - 0.00 in0.0 mm 0.00 in0.0 mm
08:40 AM 71.9°F22.2°C 69.5°F20.8°C 92% Calm Calm -- 29.79 in1008.8 mb - 0.00 in0.0 mm 0.00 in0.0 mm
08:30 AM 71.7°F22.1°C 69.3°F20.7°C 92% Calm Calm -- 29.79 in1008.8 mb - 0.00 in0.0 mm 0.00 in0.0 mm
08:20 AM 71.3°F21.8°C 69.2°F20.7°C 93% Calm Calm -- 29.79 in1008.8 mb - 0.00 in0.0 mm 0.00 in0.0 mm
08:10 AM 71.0°F21.7°C 68.9°F20.5°C 93% Calm Calm -- 29.79 in1008.8 mb - 0.00 in0.0 mm 0.00 in0.0 mm
08:00 AM 70.4°F21.3°C 68.3°F20.2°C 93% Calm Calm -- 29.80 in1009.1 mb - 0.00 in0.0 mm 0.00 in0.0 mm
07:50 AM 70.1°F21.2°C 68.0°F20.0°C 93% Calm Calm -- 29.80 in1009.1 mb - 0.00 in0.0 mm 0.00 in0.0 mm
07:40 AM 69.8°F21.0°C 67.7°F19.8°C 93% Calm Calm -- 29.80 in1009.1 mb - 0.00 in0.0 mm 0.00 in0.0 mm
07:30 AM 69.5°F20.8°C 67.7°F19.8°C 94% Calm Calm -- 29.80 in1009.1 mb - 0.00 in0.0 mm 0.00 in0.0 mm
07:20 AM 69.3°F20.7°C 67.5°F19.7°C 94% Calm Calm -- 29.80 in1009.1 mb - 0.00 in0.0 mm 0.00 in0.0 mm
07:10 AM 69.0°F20.6°C 67.2°F19.6°C 94% Calm Calm -- 29.80 in1009.1 mb - 0.00 in0.0 mm 0.00 in0.0 mm
07:00 AM 68.8°F20.4°C 67.0°F19.4°C 94% Calm Calm -- 29.81 in1009.5 mb - 0.00 in0.0 mm 0.00 in0.0 mm
06:50 AM 68.7°F20.4°C 66.9°F19.4°C 94% Calm Calm -- 29.81 in1009.5 mb - 0.00 in0.0 mm 0.00 in0.0 mm
06:40 AM 68.6°F20.3°C 66.8°F19.3°C 94% Calm Calm -- 29.81 in1009.5 mb - 0.00 in0.0 mm 0.00 in0.0 mm
06:30 AM 68.5°F20.3°C 66.7°F19.3°C 94% Calm Calm -- 29.81 in1009.5 mb - 0.00 in0.0 mm 0.00 in0.0 mm
06:20 AM 68.5°F20.3°C 66.7°F19.3°C 94% Calm Calm -- 29.81 in1009.5 mb - 0.00 in0.0 mm 0.00 in0.0 mm
06:10 AM 68.5°F20.3°C 66.7°F19.3°C 94% Calm Calm -- 29.80 in1009.1 mb - 0.00 in0.0 mm 0.00 in0.0 mm
06:00 AM 68.3°F20.2°C 66.8°F19.3°C 95% Calm Calm -- 29.80 in1009.1 mb - 0.00 in0.0 mm 0.00 in0.0 mm
05:50 AM 68.1°F20.1°C 66.6°F19.2°C 95% Calm Calm -- 29.81 in1009.5 mb - 0.00 in0.0 mm 0.00 in0.0 mm
05:40 AM 68.1°F20.1°C 66.6°F19.2°C 95% Calm Calm -- 29.80 in1009.1 mb - 0.00 in0.0 mm 0.00 in0.0 mm
05:30 AM 68.1°F20.1°C 66.6°F19.2°C 95% Calm Calm -- 29.80 in1009.1 mb - 0.00 in0.0 mm 0.00 in0.0 mm
05:20 AM 68.1°F20.1°C 66.6°F19.2°C 95% Calm Calm -- 29.81 in1009.5 mb - 0.00 in0.0 mm 0.00 in0.0 mm
05:10 AM 68.2°F20.1°C 66.7°F19.3°C 95% Calm Calm -- 29.81 in1009.5 mb - 0.00 in0.0 mm 0.00 in0.0 mm
05:00 AM 68.2°F20.1°C 66.7°F19.3°C 95% Calm Calm -- 29.81 in1009.5 mb - 0.00 in0.0 mm 0.00 in0.0 mm
04:50 AM 68.4°F20.2°C 66.9°F19.4°C 95% Calm Calm -- 29.81 in1009.5 mb - 0.00 in0.0 mm 0.00 in0.0 mm
04:40 AM 68.5°F20.3°C 67.0°F19.4°C 95% Calm Calm -- 29.81 in1009.5 mb - 0.00 in0.0 mm 0.00 in0.0 mm
04:30 AM 68.6°F20.3°C 67.1°F19.5°C 95% Calm Calm -- 29.81 in1009.5 mb - 0.00 in0.0 mm 0.00 in0.0 mm
04:20 AM 68.6°F20.3°C 67.1°F19.5°C 95% Calm Calm -- 29.81 in1009.5 mb - 0.00 in0.0 mm 0.00 in0.0 mm
04:10 AM 68.4°F20.2°C 66.9°F19.4°C 95% Calm Calm -- 29.81 in1009.5 mb - 0.00 in0.0 mm 0.00 in0.0 mm
04:00 AM 68.3°F20.2°C 66.8°F19.3°C 95% Calm Calm -- 29.81 in1009.5 mb - 0.00 in0.0 mm 0.00 in0.0 mm
03:50 AM 68.1°F20.1°C 66.6°F19.2°C 95% Calm Calm -- 29.82 in1009.8 mb - 0.00 in0.0 mm 0.00 in0.0 mm
03:40 AM 67.9°F19.9°C 66.1°F18.9°C 94% Calm Calm -- 29.82 in1009.8 mb - 0.00 in0.0 mm 0.00 in0.0 mm
03:30 AM 67.9°F19.9°C 66.1°F18.9°C 94% Calm Calm -- 29.82 in1009.8 mb - 0.00 in0.0 mm 0.00 in0.0 mm
03:20 AM 67.9°F19.9°C 66.1°F18.9°C 94% Calm Calm -- 29.82 in1009.8 mb - 0.00 in0.0 mm 0.00 in0.0 mm
03:10 AM 67.7°F19.8°C 65.6°F18.7°C 93% Calm Calm -- 29.82 in1009.8 mb - 0.00 in0.0 mm 0.00 in0.0 mm
03:00 AM 67.8°F19.9°C 65.7°F18.7°C 93% Calm Calm -- 29.82 in1009.8 mb - 0.00 in0.0 mm 0.00 in0.0 mm
02:50 AM 67.9°F19.9°C 65.8°F18.8°C 93% Calm Calm -- 29.83 in1010.2 mb - 0.00 in0.0 mm 0.00 in0.0 mm
02:40 AM 68.1°F20.1°C 66.0°F18.9°C 93% Calm Calm -- 29.83 in1010.2 mb - 0.00 in0.0 mm 0.00 in0.0 mm
02:30 AM 68.2°F20.1°C 66.1°F18.9°C 93% Calm Calm -- 29.83 in1010.2 mb - 0.00 in0.0 mm 0.00 in0.0 mm
02:20 AM 68.2°F20.1°C 65.8°F18.8°C 92% Calm Calm -- 29.83 in1010.2 mb - 0.00 in0.0 mm 0.00 in0.0 mm
02:10 AM 68.3°F20.2°C 65.9°F18.8°C 92% Calm Calm -- 29.83 in1010.2 mb - 0.00 in0.0 mm 0.00 in0.0 mm
02:00 AM 68.3°F20.2°C 65.9°F18.8°C 92% Calm Calm -- 29.84 in1010.5 mb - 0.00 in0.0 mm 0.00 in0.0 mm
01:50 AM 68.1°F20.1°C 65.4°F18.6°C 91% Calm Calm -- 29.84 in1010.5 mb - 0.00 in0.0 mm 0.00 in0.0 mm
01:40 AM 68.1°F20.1°C 65.4°F18.6°C 91% Calm Calm -- 29.84 in1010.5 mb - 0.00 in0.0 mm 0.00 in0.0 mm
01:30 AM 68.1°F20.1°C 65.4°F18.6°C 91% Calm Calm -- 29.84 in1010.5 mb - 0.00 in0.0 mm 0.00 in0.0 mm
01:20 AM 68.1°F20.1°C 65.1°F18.4°C 90% Calm Calm -- 29.84 in1010.5 mb - 0.00 in0.0 mm 0.00 in0.0 mm
01:10 AM 68.1°F20.1°C 65.1°F18.4°C 90% Calm Calm -- 29.84 in1010.5 mb - 0.00 in0.0 mm 0.00 in0.0 mm
01:00 AM 68.1°F20.1°C 65.1°F18.4°C 90% Calm Calm -- 29.84 in1010.5 mb - 0.00 in0.0 mm 0.00 in0.0 mm
12:50 AM 68.2°F20.1°C 65.2°F18.4°C 90% Calm Calm -- 29.84 in1010.5 mb - 0.00 in0.0 mm 0.00 in0.0 mm
12:40 AM 68.3°F20.2°C 65.3°F18.5°C 90% Calm Calm -- 29.84 in1010.5 mb - 0.00 in0.0 mm 0.00 in0.0 mm
12:30 AM 68.4°F20.2°C 65.4°F18.6°C 90% Calm Calm -- 29.84 in1010.5 mb - 0.00 in0.0 mm 0.00 in0.0 mm
12:20 AM 68.5°F20.3°C 65.4°F18.6°C 90% Calm Calm -- 29.85 in1010.8 mb - 0.00 in0.0 mm 0.00 in0.0 mm
12:10 AM 68.5°F20.3°C 65.1°F18.4°C 89% Calm Calm -- 29.85 in1010.8 mb - 0.00 in0.0 mm 0.00 in0.0 mm
12:00 AM 68.6°F20.3°C 64.9°F18.3°C 88% Calm Calm -- 29.85 in1010.8 mb - 0.00 in0.0 mm 0.00 in0.0 mm